createdAt,value
2018-09-19T00:00:53.344Z,89.61
2018-09-19T00:01:53.105Z,89.86
2018-09-19T00:02:53.389Z,90.23
2018-09-19T00:03:53.414Z,90
2018-09-19T00:04:53.429Z,90
2018-09-19T00:05:53.453Z,90.57
2018-09-19T00:06:53.478Z,90.33
2018-09-19T00:07:53.503Z,90.33
2018-09-19T00:08:53.525Z,90.53
2018-09-19T00:09:53.544Z,90.23
2018-09-19T00:11:08.279Z,90
2018-09-19T00:11:53.593Z,90.53
2018-09-19T00:12:53.662Z,90.43
2018-09-19T00:13:53.648Z,90.14
2018-09-19T00:14:53.663Z,89.95
2018-09-19T00:15:53.685Z,90.19
2018-09-19T00:16:53.705Z,89.57
2018-09-19T00:17:53.730Z,89.86
2018-09-19T00:18:53.765Z,89.86
2018-09-19T00:19:53.780Z,90.33
2018-09-19T00:20:53.800Z,90.43
2018-09-19T00:21:53.889Z,90.33
2018-09-19T00:22:53.842Z,90.14
2018-09-19T00:23:53.875Z,90.62
2018-09-19T00:24:53.893Z,90.62
2018-09-19T00:25:54.016Z,90.33
2018-09-19T00:27:08.596Z,90.43
2018-09-19T00:27:53.961Z,90.23
2018-09-19T00:28:54.027Z,90.23
2018-09-19T00:29:54.014Z,90.23
2018-09-19T00:30:54.050Z,90.23
2018-09-19T00:31:54.050Z,90.05
2018-09-19T00:32:53.814Z,90.53
2018-09-19T00:34:54.156Z,90.33
2018-09-19T00:35:53.886Z,90.81
2018-09-19T00:36:54.165Z,90.33
2018-09-19T00:37:54.188Z,90.33
2018-09-19T00:38:54.220Z,90.53
2018-09-19T00:39:54.233Z,90.81
2018-09-19T00:40:54.313Z,91.1
2018-09-19T00:42:08.946Z,90.33
2018-09-19T00:42:54.306Z,90.23
2018-09-19T00:43:54.067Z,90.14
2018-09-19T00:44:54.355Z,90.43
2018-09-19T00:45:54.369Z,90.23
2018-09-19T00:46:54.407Z,89.95
2018-09-19T00:47:54.422Z,90.23
2018-09-19T00:49:54.466Z,89.47
2018-09-19T00:50:54.228Z,89.86
2018-09-19T00:51:54.507Z,89.28
2018-09-19T00:53:54.621Z,89.09
2018-09-19T00:54:54.584Z,89.09
2018-09-19T00:55:54.599Z,89.57
2018-09-19T00:56:54.626Z,89.66
2018-09-19T00:57:54.657Z,89.09
2018-09-19T00:58:54.667Z,89.47
2018-09-19T00:59:54.692Z,89.18
2018-09-19T01:01:54.743Z,88.99
2018-09-19T01:02:54.764Z,90.53
2018-09-19T01:03:54.800Z,90.14
2018-09-19T01:04:54.805Z,91
2018-09-19T01:05:54.828Z,90.91
2018-09-19T01:06:54.854Z,90.53
2018-09-19T01:07:54.622Z,89.37
2018-09-19T01:08:54.955Z,89.37
2018-09-19T01:09:54.918Z,89.86
2018-09-19T01:10:54.942Z,90.23
2018-09-19T01:11:54.982Z,89.95
2018-09-19T01:12:54.985Z,89.95
2018-09-19T01:14:09.671Z,89.28
2018-09-19T01:14:55.033Z,90.05
2018-09-19T01:15:55.069Z,90.33
2018-09-19T01:17:55.099Z,90.14
2018-09-19T01:18:55.127Z,89.37
2018-09-19T01:19:55.151Z,89.95
2018-09-19T01:20:55.177Z,89.95
2018-09-19T01:21:55.193Z,90.05
2018-09-19T01:22:55.217Z,89.57
2018-09-19T01:23:55.305Z,88.23
2018-09-19T01:24:55.272Z,88.32
2018-09-19T01:25:55.288Z,87.94
2018-09-19T01:26:55.316Z,87.65
2018-09-19T01:27:55.328Z,87.41
2018-09-19T01:28:55.357Z,86.93
2018-09-19T01:30:10.037Z,86.64
2018-09-19T01:30:55.395Z,86.64
2018-09-19T01:31:55.425Z,85.44
2018-09-19T01:32:55.442Z,84.38
2018-09-19T01:34:55.492Z,83.91
2018-09-19T01:36:55.531Z,81.93
2018-09-19T01:37:55.562Z,81.93
2018-09-19T01:38:55.577Z,81.16
2018-09-19T01:39:55.603Z,80.58
2018-09-19T01:42:55.670Z,78.7
2018-09-19T01:43:55.695Z,78.7
2018-09-19T01:44:55.724Z,78.52
2018-09-19T01:46:10.398Z,78.23
2018-09-19T01:46:55.770Z,78.32
2018-09-19T01:47:55.783Z,78.17
2018-09-19T01:48:55.816Z,78.27
2018-09-19T01:49:55.831Z,78.45
2018-09-19T01:50:55.853Z,78.27
2018-09-19T01:51:55.875Z,78.65
2018-09-19T01:52:55.897Z,78.27
2018-09-19T01:53:55.918Z,78.27
2018-09-19T01:55:55.969Z,78.84
2018-09-19T01:56:55.993Z,79.13
2018-09-19T01:57:56.011Z,79.03
2018-09-19T01:58:56.035Z,78.99
2018-09-19T01:59:56.070Z,79.13
2018-09-19T02:00:56.079Z,79.8
2018-09-19T02:02:10.763Z,79.99
2018-09-19T02:02:56.131Z,79.61
2018-09-19T02:03:56.153Z,79.71
2018-09-19T02:04:55.915Z,79.52
2018-09-19T02:05:56.201Z,80.09
2018-09-19T02:06:56.228Z,80.09
2018-09-19T02:07:56.240Z,80.09
2018-09-19T02:08:56.263Z,80.57
2018-09-19T02:09:56.289Z,81.1
2018-09-19T02:10:56.309Z,81.4
2018-09-19T02:11:56.384Z,81.68
2018-09-19T02:12:56.357Z,81.34
2018-09-19T02:13:56.132Z,81.72
2018-09-19T02:14:56.411Z,81.97
2018-09-19T02:15:56.428Z,81.78
2018-09-19T02:17:11.109Z,81.78
2018-09-19T02:17:56.470Z,81.78
2018-09-19T02:18:56.495Z,82.16
2018-09-19T02:19:56.521Z,82.3
2018-09-19T02:20:56.537Z,82.68
2018-09-19T02:21:56.576Z,83.03
2018-09-19T02:22:56.587Z,82.93
2018-09-19T02:23:56.610Z,82.74
2018-09-19T02:24:56.632Z,83.12
2018-09-19T02:25:56.658Z,82.74
2018-09-19T02:26:56.681Z,83.22
2018-09-19T02:27:56.711Z,83.51
2018-09-19T02:28:56.725Z,83.8
2018-09-19T02:29:56.751Z,83.98
2018-09-19T02:30:56.821Z,84.08
2018-09-19T02:31:56.792Z,84.18
2018-09-19T02:32:56.850Z,84.08
2018-09-19T02:33:56.846Z,84.75
2018-09-19T02:34:56.865Z,84.47
2018-09-19T02:35:56.908Z,84.75
2018-09-19T02:36:56.934Z,84.47
2018-09-19T02:38:56.957Z,84.75
2018-09-19T02:39:56.977Z,84.47
2018-09-19T02:40:57.006Z,84.85
2018-09-19T02:41:57.026Z,85.14
2018-09-19T02:42:57.077Z,85.62
2018-09-19T02:43:57.071Z,86.1
2018-09-19T02:44:57.101Z,86.05
2018-09-19T02:45:57.117Z,85.91
2018-09-19T02:46:57.161Z,86.54
2018-09-19T02:47:57.158Z,86.38
2018-09-19T02:49:11.845Z,86.58
2018-09-19T02:49:57.218Z,86.68
2018-09-19T02:50:56.973Z,86.72
2018-09-19T02:51:57.265Z,86.34
2018-09-19T02:52:57.299Z,87.01
2018-09-19T02:53:57.325Z,86.92
2018-09-19T02:54:57.327Z,87.01
2018-09-19T02:55:57.450Z,87.01
2018-09-19T02:56:57.112Z,87.68
2018-09-19T02:57:57.428Z,87.49
2018-09-19T02:59:57.497Z,87.11
2018-09-19T03:00:57.480Z,86.96
2018-09-19T03:01:57.487Z,86.87
2018-09-19T03:02:57.513Z,86.96
2018-09-19T03:03:57.534Z,87.01
2018-09-19T03:05:12.212Z,87.4
2018-09-19T03:05:57.588Z,87.44
2018-09-19T03:06:57.595Z,87.3
2018-09-19T03:08:57.646Z,87.49
2018-09-19T03:09:57.669Z,87.3
2018-09-19T03:10:57.688Z,87.59
2018-09-19T03:11:57.710Z,88.26
2018-09-19T03:12:57.919Z,87.88
2018-09-19T03:13:57.758Z,88.17
2018-09-19T03:14:57.782Z,88.17
2018-09-19T03:15:57.817Z,88.07
2018-09-19T03:16:57.591Z,88.17
2018-09-19T03:17:57.852Z,87.88
2018-09-19T03:18:57.872Z,87.98
2018-09-19T03:19:57.895Z,88.45
2018-09-19T03:21:12.577Z,89.03
2018-09-19T03:21:57.940Z,89.41
2018-09-19T03:22:57.969Z,89.41
2018-09-19T03:23:57.985Z,89.41
2018-09-19T03:24:58.007Z,89.51
2018-09-19T03:25:58.033Z,89.27
2018-09-19T03:26:57.806Z,90.23
2018-09-19T03:27:58.079Z,90.61
2018-09-19T03:28:58.102Z,90.71
2018-09-19T03:29:58.126Z,90.81
2018-09-19T03:31:58.192Z,91.09
2018-09-19T03:32:58.191Z,91.09
2018-09-19T03:33:58.215Z,90.71
2018-09-19T03:34:58.237Z,91
2018-09-19T03:35:58.010Z,91.77
2018-09-19T03:37:12.942Z,91.19
2018-09-19T03:37:58.309Z,91.86
2018-09-19T03:38:58.331Z,91.57
2018-09-19T03:39:58.353Z,91.67
2018-09-19T03:40:58.383Z,91.77
2018-09-19T03:41:58.405Z,91.19
2018-09-19T03:42:58.471Z,91.77
2018-09-19T03:43:58.445Z,91
2018-09-19T03:44:58.476Z,91.67
2018-09-19T03:45:58.494Z,91.77
2018-09-19T03:46:58.517Z,91.91
2018-09-19T03:47:58.535Z,91.86
2018-09-19T03:48:58.559Z,92.34
2018-09-19T03:49:58.587Z,92.34
2018-09-19T03:52:13.288Z,92.39
2018-09-19T03:52:58.652Z,92.24
2018-09-19T03:53:58.412Z,92.49
2018-09-19T03:54:58.702Z,93.26
2018-09-19T03:55:58.725Z,93.16
2018-09-19T03:56:58.752Z,92.97
2018-09-19T03:58:58.798Z,93.44
2018-09-19T03:59:58.813Z,93.63
2018-09-19T04:00:58.837Z,93.54
2018-09-19T04:01:58.860Z,92.97
2018-09-19T04:02:58.876Z,93.35
2018-09-19T04:03:58.905Z,93.44
2018-09-19T04:04:58.927Z,92.97
2018-09-19T04:05:58.947Z,93.73
2018-09-19T04:06:58.968Z,93.26
2018-09-19T04:07:58.991Z,94.4
2018-09-19T04:08:59.015Z,94.31
2018-09-19T04:09:59.039Z,94.02
2018-09-19T04:10:59.062Z,94.31
2018-09-19T04:11:59.100Z,94.31
2018-09-19T04:12:59.105Z,94.21
2018-09-19T04:13:59.130Z,94.02
2018-09-19T04:14:58.897Z,94.89
2018-09-19T04:15:59.176Z,95.12
2018-09-19T04:16:59.199Z,95.89
2018-09-19T04:17:59.475Z,96.18
2018-09-19T04:18:59.264Z,96.37
2018-09-19T04:19:59.266Z,96.27
2018-09-19T04:20:59.299Z,96.56
2018-09-19T04:21:59.311Z,96.56
2018-09-19T04:22:59.346Z,96.94
2018-09-19T04:24:14.018Z,96.84
2018-09-19T04:24:59.381Z,97.71
2018-09-19T04:25:59.412Z,97.71
2018-09-19T04:26:59.426Z,98.1
2018-09-19T04:29:59.491Z,98.67
2018-09-19T04:30:59.515Z,98.33
2018-09-19T04:31:59.545Z,99.19
2018-09-19T04:32:59.562Z,99.05
2018-09-19T04:33:59.585Z,99.15
2018-09-19T04:34:59.610Z,98.19
2018-09-19T04:35:59.631Z,98.47
2018-09-19T04:36:59.652Z,98.47
2018-09-19T04:37:59.686Z,99.05
2018-09-19T04:38:59.733Z,99.1
2018-09-19T04:40:14.381Z,99.48
2018-09-19T04:40:59.746Z,99.38
2018-09-19T04:42:59.795Z,99.77
2018-09-19T04:43:59.810Z,99.99
2018-09-19T04:45:00.016Z,99.99
2018-09-19T04:45:59.856Z,99.87
2018-09-19T04:46:59.904Z,99.99
2018-09-19T04:47:59.644Z,99.99
2018-09-19T04:48:59.926Z,99.99
2018-09-19T04:49:59.969Z,99.99
2018-09-19T04:50:59.972Z,99.99
2018-09-19T04:51:59.999Z,99.99
2018-09-19T04:53:00.021Z,99.99
2018-09-19T04:54:00.043Z,99.99
2018-09-19T04:55:00.066Z,99.99
2018-09-19T04:56:14.742Z,99.99
2018-09-19T04:57:00.149Z,99.99
2018-09-19T04:58:00.144Z,99.99
2018-09-19T04:59:00.164Z,99.99
2018-09-19T05:00:00.175Z,99.99
2018-09-19T05:02:00.224Z,99.99
2018-09-19T05:03:00.249Z,99.99
2018-09-19T05:04:00.271Z,99.99
2018-09-19T05:05:00.295Z,99.99
2018-09-19T05:06:00.308Z,99.99
2018-09-19T05:07:00.335Z,99.99
2018-09-19T05:08:00.356Z,99.99
2018-09-19T05:09:00.394Z,99.99
2018-09-19T05:10:00.397Z,99.99
2018-09-19T05:11:00.426Z,99.99
2018-09-19T05:12:15.103Z,99.99
2018-09-19T05:13:00.465Z,99.99
2018-09-19T05:14:00.499Z,99.99
2018-09-19T05:15:00.511Z,99.99
2018-09-19T05:16:00.534Z,99.99
2018-09-19T05:17:00.558Z,99.99
2018-09-19T05:18:00.583Z,99.99
2018-09-19T05:20:00.626Z,99.82
2018-09-19T05:21:00.652Z,99.99
2018-09-19T05:22:00.676Z,99.72
2018-09-19T05:23:00.699Z,99.99
2018-09-19T05:24:00.715Z,99.99
2018-09-19T05:25:00.737Z,99.82
2018-09-19T05:26:00.762Z,99.43
2018-09-19T05:27:15.448Z,99.53
2018-09-19T05:28:00.811Z,99.99
2018-09-19T05:29:00.830Z,99.99
2018-09-19T05:30:00.861Z,99.99
2018-09-19T05:31:00.876Z,99.43
2018-09-19T05:32:00.899Z,99.43
2018-09-19T05:33:00.920Z,99.63
2018-09-19T05:34:00.946Z,98.67
2018-09-19T05:35:00.971Z,99.15
2018-09-19T05:36:00.992Z,98.47
2018-09-19T05:37:01.018Z,98.38
2018-09-19T05:38:01.044Z,98
2018-09-19T05:39:01.058Z,97.8
2018-09-19T05:40:00.826Z,97.9
2018-09-19T05:41:01.107Z,97.8
2018-09-19T05:42:01.125Z,98.05
2018-09-19T05:43:01.160Z,97.56
2018-09-19T05:44:01.175Z,97.09
2018-09-19T05:45:01.197Z,97.56
2018-09-19T05:46:01.220Z,97.95
2018-09-19T05:47:01.994Z,98.43
2018-09-19T05:48:01.265Z,98.91
2018-09-19T05:49:01.288Z,98.52
2018-09-19T05:50:01.312Z,98.43
2018-09-19T05:51:01.337Z,98.72
2018-09-19T05:52:01.355Z,98.43
2018-09-19T05:53:01.170Z,98.14
2018-09-19T05:54:01.402Z,97.61
2018-09-19T05:55:01.428Z,96.85
2018-09-19T05:56:01.453Z,95.07
2018-09-19T05:57:01.478Z,94.16
2018-09-19T05:58:01.495Z,92.43
2018-09-19T05:59:16.182Z,91.33
2018-09-19T06:01:01.569Z,88.59
2018-09-19T06:02:01.593Z,87.09
2018-09-19T06:03:01.357Z,86.61
2018-09-19T06:04:01.648Z,85.31
2018-09-19T06:05:01.890Z,83.86
2018-09-19T06:06:01.713Z,83.23
2018-09-19T06:07:01.727Z,82.56
2018-09-19T06:08:01.749Z,82.02
2018-09-19T06:10:01.803Z,81.54
2018-09-19T06:11:01.824Z,80.48
2018-09-19T06:12:01.859Z,78.88
2018-09-19T06:13:02.133Z,78.25
2018-09-19T06:14:01.952Z,77.76
2018-09-19T06:15:16.601Z,77.09
2018-09-19T06:16:01.960Z,77.33
2018-09-19T06:17:02.005Z,76.17
2018-09-19T06:18:02.019Z,75.3
2018-09-19T06:19:02.044Z,75.62
2018-09-19T06:20:02.098Z,74.95
2018-09-19T06:21:02.098Z,74.31
2018-09-19T06:22:02.128Z,74.21
2018-09-19T06:23:02.161Z,73.83
2018-09-19T06:24:02.191Z,73.73
2018-09-19T06:25:02.219Z,73.63
2018-09-19T06:26:02.254Z,73.25
2018-09-19T06:27:02.483Z,73.25
2018-09-19T06:28:02.308Z,72.8
2018-09-19T06:29:02.331Z,71.55
2018-09-19T06:30:02.359Z,70.78
2018-09-19T06:31:17.050Z,70.81
2018-09-19T06:32:02.423Z,70.81
2018-09-19T06:33:02.865Z,69.56
2018-09-19T06:34:02.486Z,69.2
2018-09-19T06:35:02.508Z,68.72
2018-09-19T06:37:02.731Z,68.08
2018-09-19T06:38:02.606Z,67.11
2018-09-19T06:39:02.636Z,66.63
2018-09-19T06:40:02.796Z,65.79
2018-09-19T06:41:03.225Z,65.79
2018-09-19T06:42:02.722Z,65.5
2018-09-19T06:43:02.766Z,64.66
2018-09-19T06:44:02.791Z,64.27
2018-09-19T06:45:02.824Z,63.82
2018-09-19T06:46:02.845Z,63.43
2018-09-19T06:47:17.546Z,63.24
2018-09-19T06:48:02.910Z,62.27
2018-09-19T06:49:02.952Z,62.27
2018-09-19T06:50:02.976Z,62.1
2018-09-19T06:51:03.019Z,61.91
2018-09-19T06:52:03.169Z,61.24
2018-09-19T06:53:03.068Z,61.62
2018-09-19T06:54:03.124Z,61.62
2018-09-19T06:55:03.138Z,61.24
2018-09-19T06:56:03.167Z,61.07
2018-09-19T06:57:03.273Z,60.1
2018-09-19T06:58:03.240Z,59.84
2018-09-19T06:59:03.271Z,60
2018-09-19T07:00:03.296Z,60.58
2018-09-19T07:01:03.346Z,60.61
2018-09-19T07:02:18.026Z,60.71
2018-09-19T07:03:03.405Z,60.3
2018-09-19T07:04:03.435Z,60
2018-09-19T07:05:03.462Z,59.94
2018-09-19T07:06:03.235Z,60.42
2018-09-19T07:07:03.528Z,60.58
2018-09-19T07:08:03.572Z,61.07
2018-09-19T07:10:03.630Z,61.72
2018-09-19T07:11:03.679Z,62.1
2018-09-19T07:12:03.688Z,61.59
2018-09-19T07:13:03.720Z,62.69
2018-09-19T07:14:03.751Z,61.82
2018-09-19T07:15:03.786Z,61.43
2018-09-19T07:16:03.554Z,60.88
2018-09-19T07:17:03.844Z,60.58
2018-09-19T07:18:03.876Z,60.2
2018-09-19T07:19:04.150Z,60.58
2018-09-19T07:20:03.951Z,59.94
2018-09-19T07:21:03.973Z,60.03
2018-09-19T07:22:04.029Z,59.16
2018-09-19T07:23:04.074Z,58.8
2018-09-19T07:24:04.155Z,58.41
2018-09-19T07:26:04.146Z,58.05
2018-09-19T07:28:04.195Z,57.28
2018-09-19T07:29:04.236Z,56.24
2018-09-19T07:30:03.999Z,55.58
2018-09-19T07:31:04.052Z,55.88
2018-09-19T07:32:04.070Z,55.68
2018-09-19T07:33:04.356Z,55.39
2018-09-19T07:34:19.050Z,55.03
2018-09-19T07:35:04.163Z,54.93
2018-09-19T07:36:04.452Z,54.86
2018-09-19T07:37:04.486Z,54.28
2018-09-19T07:38:04.625Z,55.05
2018-09-19T07:39:04.586Z,54.74
2018-09-19T07:40:04.621Z,55.78
2018-09-19T07:41:04.622Z,56.26
2018-09-19T07:43:04.427Z,55.98
2018-09-19T07:44:04.716Z,56.04
2018-09-19T07:45:04.751Z,55.88
2018-09-19T07:46:04.783Z,56.43
2018-09-19T07:47:04.808Z,57.01
2018-09-19T07:48:04.839Z,56.92
2018-09-19T07:49:04.885Z,56.72
2018-09-19T07:50:19.567Z,56.62
2018-09-19T07:51:04.942Z,56.52
2018-09-19T07:52:04.706Z,56.34
2018-09-19T07:53:04.996Z,56.56
2018-09-19T07:54:05.035Z,55.61
2018-09-19T07:55:05.059Z,55.61
2018-09-19T07:56:04.886Z,55.22
2018-09-19T07:57:05.120Z,55.51
2018-09-19T07:58:05.153Z,54.83
2018-09-19T07:59:05.183Z,54.64
2018-09-19T08:00:05.213Z,54.18
2018-09-19T08:01:05.393Z,54.28
2018-09-19T08:02:05.274Z,54.08
2018-09-19T08:03:05.315Z,54.38
2018-09-19T08:04:05.349Z,54.18
2018-09-19T08:05:05.369Z,54.18
2018-09-19T08:06:20.060Z,54.18
2018-09-19T08:07:05.432Z,54.08
2018-09-19T08:08:05.477Z,54.47
2018-09-19T08:09:05.599Z,54.15
2018-09-19T08:10:05.523Z,54.47
2018-09-19T08:12:05.582Z,54.93
2018-09-19T08:13:05.617Z,54.15
2018-09-19T08:14:05.649Z,54.18
2018-09-19T08:15:05.416Z,54.15
2018-09-19T08:16:05.711Z,53.89
2018-09-19T08:17:05.485Z,54.18
2018-09-19T08:18:05.768Z,54.28
2018-09-19T08:19:05.800Z,53.79
2018-09-19T08:20:05.878Z,53.52
2018-09-19T08:21:05.860Z,53.14
2018-09-19T08:22:20.548Z,52.94
2018-09-19T08:23:05.918Z,53.11
2018-09-19T08:24:05.958Z,52.84
2018-09-19T08:25:05.993Z,52.45
2018-09-19T08:26:06.111Z,52.94
2018-09-19T08:27:06.042Z,53.23
2018-09-19T08:28:06.072Z,53.42
2018-09-19T08:29:06.117Z,53.11
2018-09-19T08:30:06.132Z,52.94
2018-09-19T08:31:06.166Z,52.45
2018-09-19T08:32:06.195Z,52.45
2018-09-19T08:33:06.218Z,52.75
2018-09-19T08:34:06.257Z,52.65
2018-09-19T08:35:06.287Z,52.36
2018-09-19T08:36:06.319Z,52.16
2018-09-19T08:37:21.006Z,51.58
2018-09-19T08:38:06.373Z,52.09
2018-09-19T08:39:06.405Z,52.36
2018-09-19T08:40:06.435Z,51.61
2018-09-19T08:41:06.464Z,51.61
2018-09-19T08:42:06.497Z,51.7
2018-09-19T08:43:06.532Z,51.21
2018-09-19T08:44:06.556Z,51.41
2018-09-19T08:45:06.590Z,51.41
2018-09-19T08:46:06.623Z,51.31
2018-09-19T08:47:06.648Z,50.92
2018-09-19T08:48:06.690Z,50.56
2018-09-19T08:49:06.712Z,51.04
2018-09-19T08:50:06.747Z,50.85
2018-09-19T08:51:06.772Z,50.75
2018-09-19T08:52:06.814Z,50.85
2018-09-19T08:53:06.856Z,51.31
2018-09-19T08:54:06.866Z,50.99
2018-09-19T08:55:06.912Z,51.39
2018-09-19T08:56:06.928Z,51.12
2018-09-19T08:57:07.085Z,52.06
2018-09-19T08:58:06.991Z,52.06
2018-09-19T08:59:07.021Z,51.31
2018-09-19T09:00:07.050Z,50.82
2018-09-19T09:01:07.115Z,50.36
2018-09-19T09:02:07.120Z,49.68
2018-09-19T09:03:07.147Z,49.22
2018-09-19T09:04:07.179Z,49.22
2018-09-19T09:05:07.268Z,49.12
2018-09-19T09:06:07.240Z,49.32
2018-09-19T09:07:07.294Z,50.04
2018-09-19T09:08:07.301Z,50.14
2018-09-19T09:09:21.997Z,50.46
2018-09-19T09:10:07.367Z,49.56
2018-09-19T09:11:07.395Z,49.17
2018-09-19T09:12:07.628Z,48.97
2018-09-19T09:13:07.472Z,49.1
2018-09-19T09:14:07.522Z,48.97
2018-09-19T09:15:07.523Z,49.46
2018-09-19T09:16:07.562Z,49.46
2018-09-19T09:18:07.357Z,49.66
2018-09-19T09:19:07.646Z,48.58
2018-09-19T09:20:07.830Z,49.37
2018-09-19T09:21:07.709Z,49.44
2018-09-19T09:22:07.742Z,49.46
2018-09-19T09:23:07.774Z,49.07
2018-09-19T09:24:07.818Z,49.1
2018-09-19T09:25:22.497Z,48.68
2018-09-19T09:26:07.996Z,49.07
2018-09-19T09:27:08.321Z,48.71
2018-09-19T09:28:07.930Z,48.51
2018-09-19T09:30:07.994Z,48.61
2018-09-19T09:31:08.130Z,49
2018-09-19T09:32:08.054Z,48.12
2018-09-19T09:34:07.886Z,47.95
2018-09-19T09:35:08.148Z,47.75
2018-09-19T09:36:08.180Z,47.95
2018-09-19T09:37:08.220Z,47.85
2018-09-19T09:38:08.241Z,47.49
2018-09-19T09:39:08.278Z,47.19
2018-09-19T09:40:08.300Z,47.19
2018-09-19T09:41:23.000Z,47.29
2018-09-19T09:42:08.122Z,47.49
2018-09-19T09:43:08.400Z,47.66
2018-09-19T09:44:08.442Z,48.24
2018-09-19T09:45:08.464Z,47.75
2018-09-19T09:46:08.676Z,48.05
2018-09-19T09:47:08.528Z,47.95
2018-09-19T09:48:08.557Z,47.66
2018-09-19T09:49:08.597Z,47.68
2018-09-19T09:53:08.843Z,47.51
2018-09-19T09:54:08.745Z,47.22
2018-09-19T09:55:08.896Z,47.49
2018-09-19T09:56:08.811Z,47.19
2018-09-19T09:57:23.504Z,47.12
2018-09-19T09:58:08.871Z,46.92
2018-09-19T09:59:08.644Z,46.73
2018-09-19T10:00:08.671Z,47.02
2018-09-19T10:01:09.078Z,47.02
2018-09-19T10:02:08.995Z,46.83
2018-09-19T10:03:09.021Z,46.63
2018-09-19T10:04:09.056Z,46.73
2018-09-19T10:05:09.083Z,47.02
2018-09-19T10:06:09.137Z,46.83
2018-09-19T10:08:09.180Z,47.49
2018-09-19T10:09:09.212Z,47.49
2018-09-19T10:10:09.241Z,48.05
2018-09-19T10:11:09.274Z,48.05
2018-09-19T10:12:23.966Z,48.24
2018-09-19T10:13:09.361Z,48.61
2018-09-19T10:14:09.364Z,48.71
2018-09-19T10:15:09.395Z,49.1
2018-09-19T10:16:09.437Z,48.88
2018-09-19T10:17:09.459Z,48.78
2018-09-19T10:18:09.492Z,49.76
2018-09-19T10:19:09.518Z,50.51
2018-09-19T10:20:09.550Z,51.45
2018-09-19T10:22:09.355Z,50.87
2018-09-19T10:23:09.641Z,50.87
2018-09-19T10:24:09.676Z,50.58
2018-09-19T10:25:09.724Z,50.68
2018-09-19T10:26:09.738Z,50.51
2018-09-19T10:27:09.802Z,49.92
2018-09-19T10:28:09.798Z,50.21
2018-09-19T10:29:09.826Z,50.12
2018-09-19T10:30:09.856Z,50.51
2018-09-19T10:31:09.919Z,50.41
2018-09-19T10:32:09.914Z,50.51
2018-09-19T10:33:09.944Z,50.41
2018-09-19T10:34:09.980Z,50.21
2018-09-19T10:35:10.011Z,50.21
2018-09-19T10:37:10.068Z,50.31
2018-09-19T10:38:10.105Z,49.85
2018-09-19T10:39:10.126Z,50.24
2018-09-19T10:40:10.155Z,50.04
2018-09-19T10:41:10.179Z,50.14
2018-09-19T10:42:10.211Z,50.34
2018-09-19T10:43:10.240Z,50.43
2018-09-19T10:44:24.934Z,50.04
2018-09-19T10:45:10.299Z,50.63
2018-09-19T10:46:10.435Z,49.85
2018-09-19T10:47:10.102Z,50.14
2018-09-19T10:48:10.392Z,49.95
2018-09-19T10:49:10.420Z,50.14
2018-09-19T10:50:10.448Z,49.95
2018-09-19T10:51:10.473Z,49.78
2018-09-19T10:52:10.505Z,49.68
2018-09-19T10:54:10.563Z,49.88
2018-09-19T10:55:10.623Z,50.16
2018-09-19T10:56:10.624Z,50.07
2018-09-19T10:58:10.683Z,50.14
2018-09-19T10:59:10.708Z,49.85
2018-09-19T11:00:25.398Z,49.56
2018-09-19T11:01:10.775Z,49.95
2018-09-19T11:02:10.793Z,49.76
2018-09-19T11:03:10.831Z,49.17
2018-09-19T11:04:10.867Z,48.97
2018-09-19T11:05:10.881Z,49.27
2018-09-19T11:06:10.920Z,49.95
2018-09-19T11:07:10.936Z,50.24
2018-09-19T11:08:10.968Z,49.56
2018-09-19T11:10:11.024Z,49.17
2018-09-19T11:11:11.052Z,49.56
2018-09-19T11:12:11.078Z,48.97
2018-09-19T11:13:11.110Z,48.8
2018-09-19T11:14:11.137Z,48.88
2018-09-19T11:15:11.170Z,49.46
2018-09-19T11:16:25.856Z,49.63
2018-09-19T11:17:10.977Z,49.63
2018-09-19T11:18:11.249Z,50.12
2018-09-19T11:19:11.282Z,50.12
2018-09-19T11:20:11.308Z,50.31
2018-09-19T11:21:11.336Z,49.95
2018-09-19T11:22:11.366Z,50.34
2018-09-19T11:23:11.398Z,50.04
2018-09-19T11:24:11.424Z,49.37
2018-09-19T11:25:11.458Z,49
2018-09-19T11:26:11.478Z,49.27
2018-09-19T11:27:11.506Z,49.66
2018-09-19T11:28:11.276Z,49.29
2018-09-19T11:29:11.564Z,49.78
2018-09-19T11:30:11.592Z,49.29
2018-09-19T11:31:11.361Z,49.58
2018-09-19T11:32:26.308Z,49.29
2018-09-19T11:33:11.419Z,49.39
2018-09-19T11:34:11.704Z,49.49
2018-09-19T11:35:11.732Z,49.49
2018-09-19T11:36:11.777Z,49.56
2018-09-19T11:37:11.802Z,49.17
2018-09-19T11:38:11.820Z,49.46
2018-09-19T11:39:11.847Z,49.97
2018-09-19T11:40:11.617Z,49.56
2018-09-19T11:41:11.646Z,49.56
2018-09-19T11:42:11.929Z,49.56
2018-09-19T11:43:11.739Z,49.66
2018-09-19T11:44:11.989Z,49.78
2018-09-19T11:45:11.760Z,49.56
2018-09-19T11:46:11.787Z,49.92
2018-09-19T11:47:26.737Z,50.7
2018-09-19T11:48:12.103Z,50.7
2018-09-19T11:49:12.134Z,50.04
2018-09-19T11:50:12.161Z,49.78
2018-09-19T11:51:12.190Z,49.19
2018-09-19T11:52:12.217Z,49.19
2018-09-19T11:53:12.242Z,48.71
2018-09-19T11:54:12.277Z,49
2018-09-19T11:56:12.329Z,48.71
2018-09-19T11:57:12.361Z,49.1
2018-09-19T11:58:12.445Z,49.46
2018-09-19T11:59:12.418Z,49.37
2018-09-19T12:00:12.446Z,49.56
2018-09-19T12:01:12.470Z,49.46
2018-09-19T12:02:12.239Z,49.07
2018-09-19T12:03:12.530Z,49.56
2018-09-19T12:04:12.557Z,48.97
2018-09-19T12:05:12.584Z,49.19
2018-09-19T12:06:12.352Z,48.9
2018-09-19T12:07:12.407Z,49.1
2018-09-19T12:08:12.664Z,48.41
2018-09-19T12:09:12.694Z,48.51
2018-09-19T12:10:12.728Z,48.61
2018-09-19T12:11:12.750Z,49.1
2018-09-19T12:12:12.778Z,48.8
2018-09-19T12:14:12.834Z,49.29
2018-09-19T12:16:12.893Z,49.1
2018-09-19T12:17:12.924Z,48.71
2018-09-19T12:18:12.946Z,48.71
2018-09-19T12:19:27.661Z,48.61
2018-09-19T12:20:13.008Z,48.61
2018-09-19T12:21:13.042Z,48.44
2018-09-19T12:22:13.057Z,48.32
2018-09-19T12:23:13.090Z,48.32
2018-09-19T12:24:13.116Z,48.12
2018-09-19T12:25:13.145Z,48.61
2018-09-19T12:26:13.259Z,48.8
2018-09-19T12:27:13.199Z,48.22
2018-09-19T12:28:13.236Z,48.14
2018-09-19T12:29:13.255Z,48.51
2018-09-19T12:30:13.286Z,48.24
2018-09-19T12:31:13.313Z,47.95
2018-09-19T12:32:13.338Z,47.95
2018-09-19T12:33:13.432Z,47.85
2018-09-19T12:34:13.401Z,47.07
2018-09-19T12:35:28.086Z,47.36
2018-09-19T12:36:13.454Z,46.78
2018-09-19T12:37:13.479Z,47.44
2018-09-19T12:38:13.511Z,47.15
2018-09-19T12:39:13.278Z,47.63
2018-09-19T12:41:13.607Z,48.02
2018-09-19T12:42:13.624Z,47.15
2018-09-19T12:43:13.396Z,46.69
2018-09-19T12:45:13.704Z,46.76
2018-09-19T12:46:13.734Z,47.05
2018-09-19T12:47:13.770Z,46.86
2018-09-19T12:48:13.793Z,47.05
2018-09-19T12:49:13.953Z,46.88
2018-09-19T12:50:13.847Z,46.88
2018-09-19T12:51:28.536Z,46.69
2018-09-19T12:52:13.901Z,46.69
2018-09-19T12:53:14.046Z,46.59
2018-09-19T12:54:13.699Z,46.27
2018-09-19T12:55:13.985Z,46.17
2018-09-19T12:56:13.760Z,46.37
2018-09-19T12:57:14.041Z,46.47
2018-09-19T12:58:14.071Z,46.17
2018-09-19T12:59:14.101Z,46.27
2018-09-19T13:01:13.894Z,46.76
2018-09-19T13:02:14.183Z,46.76
2018-09-19T13:03:14.209Z,46.78
2018-09-19T13:04:14.238Z,46.59
2018-09-19T13:05:14.266Z,46.27
2018-09-19T13:06:14.296Z,46.3
2018-09-19T13:07:28.984Z,46.3
2018-09-19T13:08:14.349Z,46.49
2018-09-19T13:09:14.377Z,46.69
2018-09-19T13:10:14.411Z,46.39
2018-09-19T13:11:14.438Z,45.71
2018-09-19T13:12:14.462Z,46.39
2018-09-19T13:13:14.492Z,46.1
2018-09-19T13:14:14.259Z,46
2018-09-19T13:16:14.690Z,45.54
2018-09-19T13:17:14.601Z,45.71
2018-09-19T13:18:14.633Z,45.51
2018-09-19T13:19:14.658Z,45.51
2018-09-19T13:20:14.686Z,45.42
2018-09-19T13:21:14.719Z,45.44
2018-09-19T13:22:29.407Z,45.22
2018-09-19T13:23:14.776Z,45.15
2018-09-19T13:24:14.801Z,45.71
2018-09-19T13:25:14.838Z,45.03
2018-09-19T13:26:14.861Z,45.81
2018-09-19T13:27:14.645Z,46
2018-09-19T13:28:14.911Z,45.9
2018-09-19T13:29:14.953Z,45.44
2018-09-19T13:31:14.993Z,45.51
2018-09-19T13:33:15.053Z,45.54
2018-09-19T13:34:15.085Z,44.73
2018-09-19T13:35:15.108Z,45.71
2018-09-19T13:36:15.137Z,45.44
2018-09-19T13:37:15.165Z,45.51
2018-09-19T13:38:15.193Z,45.9
2018-09-19T13:39:14.963Z,45.51
2018-09-19T13:40:15.249Z,45.83
2018-09-19T13:41:15.277Z,45.51
2018-09-19T13:42:15.305Z,44.83
2018-09-19T13:43:15.332Z,44.73
2018-09-19T13:44:15.364Z,44.34
2018-09-19T13:45:15.402Z,44.54
2018-09-19T13:46:15.417Z,44.34